createdAt,value
2022-12-31T00:00:25.659Z,95219.13
2022-12-31T00:03:13.249Z,95207.16
2022-12-31T00:05:40.473Z,95220.16
2022-12-31T00:08:08.028Z,95218.94
2022-12-31T00:10:41.506Z,95205.56
2022-12-31T00:13:10.959Z,95207.19
2022-12-31T00:15:39.234Z,95208.06
2022-12-31T00:18:07.209Z,95214.13
2022-12-31T00:20:34.637Z,95215.72
2022-12-31T00:23:02.211Z,95226.84
2022-12-31T00:25:29.319Z,95228.66
2022-12-31T00:27:56.849Z,95227.00
2022-12-31T00:30:24.074Z,95246.06
2022-12-31T00:32:51.637Z,95247.47
2022-12-31T00:35:18.878Z,95240.19
2022-12-31T00:37:46.362Z,95236.47
2022-12-31T00:40:14.190Z,95243.38
2022-12-31T00:42:41.769Z,95228.56
2022-12-31T00:45:09.223Z,95224.84
2022-12-31T00:47:36.667Z,95238.91
2022-12-31T00:50:04.118Z,95256.00
2022-12-31T00:52:31.593Z,95233.28
2022-12-31T00:55:00.377Z,95240.97
2022-12-31T00:57:27.874Z,95247.19
2022-12-31T00:59:55.003Z,95245.78
2022-12-31T01:02:22.664Z,95249.88
2022-12-31T01:04:49.960Z,95242.16
2022-12-31T01:07:17.453Z,95247.00
2022-12-31T01:09:44.619Z,95248.00
2022-12-31T01:12:12.085Z,95239.09
2022-12-31T01:14:39.199Z,95242.31
2022-12-31T01:17:06.772Z,95251.41
2022-12-31T01:19:33.898Z,95231.72
2022-12-31T01:22:01.463Z,95244.44
2022-12-31T01:24:28.625Z,95212.56
2022-12-31T01:26:58.102Z,95201.97
2022-12-31T01:29:26.390Z,95200.56
2022-12-31T01:31:53.893Z,95223.50
2022-12-31T01:34:21.055Z,95228.38
2022-12-31T01:36:48.676Z,95234.44
2022-12-31T01:39:15.881Z,95169.56
2022-12-31T01:41:45.670Z,95223.28
2022-12-31T01:44:12.798Z,95219.53
2022-12-31T01:47:02.362Z,95200.81
2022-12-31T01:49:44.601Z,95240.47
2022-12-31T01:52:14.840Z,95220.66
2022-12-31T01:54:47.411Z,95190.69
2022-12-31T01:57:16.047Z,95195.00
2022-12-31T01:59:45.295Z,95201.69
2022-12-31T02:02:14.973Z,95223.44
2022-12-31T02:04:42.321Z,95220.66
2022-12-31T02:07:11.528Z,95220.81
2022-12-31T02:09:42.018Z,95207.91
2022-12-31T02:12:11.070Z,95222.13
2022-12-31T02:14:42.478Z,95220.50
2022-12-31T02:17:42.079Z,95233.94
2022-12-31T02:20:24.556Z,95231.09
2022-12-31T02:23:29.605Z,95235.59
2022-12-31T02:26:05.575Z,95234.19
2022-12-31T02:28:42.247Z,95241.75
2022-12-31T02:31:17.066Z,95223.72
2022-12-31T02:34:07.919Z,95218.81
2022-12-31T02:36:40.438Z,95231.84
2022-12-31T02:39:10.666Z,95223.75
2022-12-31T02:41:53.975Z,95223.56
2022-12-31T02:44:36.316Z,95214.63
2022-12-31T02:47:06.759Z,95228.44
2022-12-31T02:49:43.123Z,95218.91
2022-12-31T02:52:19.089Z,95224.22
2022-12-31T02:55:14.039Z,95221.19
2022-12-31T02:57:51.714Z,95228.94
2022-12-31T03:00:37.947Z,95223.44
2022-12-31T03:03:07.152Z,95227.28
2022-12-31T03:05:40.508Z,95221.22
2022-12-31T03:08:08.422Z,95220.41
2022-12-31T03:10:38.309Z,95231.16
2022-12-31T03:13:05.520Z,95234.84
2022-12-31T03:15:34.718Z,95233.44
2022-12-31T03:18:03.896Z,95234.25
2022-12-31T03:21:02.211Z,95229.81
2022-12-31T03:24:05.938Z,95232.22
2022-12-31T03:26:33.422Z,95229.38
2022-12-31T03:29:00.544Z,95220.84
2022-12-31T03:31:28.800Z,95215.78
2022-12-31T03:33:56.017Z,95218.44
2022-12-31T03:36:23.662Z,95226.53
2022-12-31T03:38:52.875Z,95231.22
2022-12-31T03:41:23.385Z,95212.34
2022-12-31T03:43:50.607Z,95219.22
2022-12-31T03:46:18.254Z,95215.78
2022-12-31T03:48:45.445Z,95237.94
2022-12-31T03:51:13.644Z,95239.97
2022-12-31T03:53:40.834Z,95228.59
2022-12-31T03:56:08.352Z,95216.38
2022-12-31T03:58:35.547Z,95221.06
2022-12-31T04:01:03.246Z,95195.44
2022-12-31T04:03:30.387Z,95187.53
2022-12-31T04:05:57.992Z,95208.66
2022-12-31T04:08:25.561Z,95216.78
2022-12-31T04:10:53.162Z,95242.38
2022-12-31T04:13:20.373Z,95238.75
2022-12-31T04:15:51.152Z,95256.00
2022-12-31T04:18:18.389Z,95252.75
2022-12-31T04:20:45.847Z,95251.72
2022-12-31T04:23:13.024Z,95241.16
2022-12-31T04:25:40.493Z,95246.44
2022-12-31T04:28:07.669Z,95247.66
2022-12-31T04:30:35.169Z,95247.06
2022-12-31T04:33:04.874Z,95257.84
2022-12-31T04:35:32.364Z,95252.94
2022-12-31T04:37:59.534Z,95267.56
2022-12-31T04:40:26.993Z,95264.75
2022-12-31T04:42:54.133Z,95272.47
2022-12-31T04:45:21.554Z,95266.78
2022-12-31T04:47:48.754Z,95253.75
2022-12-31T04:50:16.340Z,95231.41
2022-12-31T04:52:43.565Z,95242.38
2022-12-31T04:55:11.771Z,95254.56
2022-12-31T04:57:39.294Z,95248.91
2022-12-31T05:00:08.181Z,95250.13
2022-12-31T05:02:35.522Z,95255.81
2022-12-31T05:05:03.232Z,95253.38
2022-12-31T05:07:30.389Z,95263.09
2022-12-31T05:09:57.902Z,95259.66
2022-12-31T05:12:25.145Z,95255.34
2022-12-31T05:14:52.650Z,95255.34
2022-12-31T05:17:20.912Z,95262.66
2022-12-31T05:19:48.349Z,95264.09
2022-12-31T05:22:30.749Z,95253.94
2022-12-31T05:24:59.671Z,95262.25
2022-12-31T05:27:28.844Z,95270.78
2022-12-31T05:29:55.879Z,95255.34
2022-12-31T05:32:23.384Z,95277.06
2022-12-31T05:34:50.594Z,95286.00
2022-12-31T05:37:18.064Z,95291.94
2022-12-31T05:39:45.178Z,95289.47
2022-12-31T05:42:12.589Z,95295.81
2022-12-31T05:44:39.768Z,95290.16
2022-12-31T05:47:07.278Z,95300.72
2022-12-31T05:49:34.518Z,95304.19
2022-12-31T05:52:02.056Z,95315.16
2022-12-31T05:54:29.271Z,95316.38
2022-12-31T05:56:57.075Z,95313.13
2022-12-31T05:59:24.314Z,95320.03
2022-12-31T06:01:52.033Z,95319.44
2022-12-31T06:04:19.210Z,95312.94
2022-12-31T06:06:46.738Z,95323.31
2022-12-31T06:09:18.112Z,95324.09
2022-12-31T06:11:47.307Z,95312.13
2022-12-31T06:14:14.475Z,95299.28
2022-12-31T06:16:42.709Z,95296.44
2022-12-31T06:19:10.352Z,95301.72
2022-12-31T06:21:38.074Z,95312.69
2022-12-31T06:24:05.699Z,95305.31
2022-12-31T06:26:33.196Z,95285.63
2022-12-31T06:29:00.367Z,95313.09
2022-12-31T06:31:28.020Z,95312.88
2022-12-31T06:33:55.375Z,95291.50
2022-12-31T06:36:22.905Z,95324.47
2022-12-31T06:38:50.089Z,95320.59
2022-12-31T06:41:18.549Z,95328.69
2022-12-31T06:43:46.363Z,95326.09
2022-12-31T06:46:16.374Z,95319.78
2022-12-31T06:48:45.059Z,95332.00
2022-12-31T06:51:18.772Z,95326.28
2022-12-31T06:53:47.636Z,95337.47
2022-12-31T06:56:18.353Z,95337.44
2022-12-31T06:58:46.539Z,95342.53
2022-12-31T07:01:40.269Z,95338.06
2022-12-31T07:04:54.110Z,95341.47
2022-12-31T07:07:33.377Z,95341.88
2022-12-31T07:10:06.431Z,95345.53
2022-12-31T07:13:03.834Z,95359.59
2022-12-31T07:15:30.949Z,95362.63
2022-12-31T07:18:15.208Z,95362.63
2022-12-31T07:20:42.761Z,95346.81
2022-12-31T07:23:10.514Z,95367.72
2022-12-31T07:25:44.688Z,95356.09
2022-12-31T07:28:22.531Z,95373.50
2022-12-31T07:31:23.586Z,95373.50
2022-12-31T07:34:04.804Z,95375.19
2022-12-31T07:36:49.923Z,95379.00
2022-12-31T07:39:28.497Z,95376.03
2022-12-31T07:42:11.629Z,95386.00
2022-12-31T07:45:18.219Z,95393.78
2022-12-31T07:47:46.446Z,95397.84
2022-12-31T07:50:16.364Z,95394.28
2022-12-31T07:52:44.765Z,95380.88
2022-12-31T07:55:12.819Z,95386.72
2022-12-31T07:58:01.381Z,95387.16
2022-12-31T08:00:30.616Z,95374.78
2022-12-31T08:03:09.979Z,95381.88
2022-12-31T08:05:53.461Z,95379.47
2022-12-31T08:08:35.353Z,95390.09
2022-12-31T08:11:25.161Z,95387.47
2022-12-31T08:13:56.412Z,95391.72
2022-12-31T08:16:24.493Z,95408.13
2022-12-31T08:18:51.924Z,95401.38
2022-12-31T08:21:35.216Z,95394.78
2022-12-31T08:24:24.116Z,95397.44
2022-12-31T08:27:13.385Z,95396.25
2022-12-31T08:29:44.892Z,95396.63
2022-12-31T08:32:22.296Z,95396.66
2022-12-31T08:35:15.127Z,95395.41
2022-12-31T08:37:51.418Z,95388.84
2022-12-31T08:40:18.572Z,95409.38
2022-12-31T08:42:58.561Z,95418.84
2022-12-31T08:45:28.975Z,95399.00
2022-12-31T08:48:08.661Z,95387.59
2022-12-31T08:50:36.175Z,95388.41
2022-12-31T08:53:04.108Z,95386.75
2022-12-31T08:55:31.495Z,95383.44
2022-12-31T08:58:29.160Z,95368.16
2022-12-31T09:00:59.343Z,95390.25
2022-12-31T09:03:42.159Z,95396.03
2022-12-31T09:06:29.569Z,95382.91
2022-12-31T09:09:09.302Z,95370.25
2022-12-31T09:11:48.420Z,95352.66
2022-12-31T09:14:47.512Z,95364.84
2022-12-31T09:17:39.338Z,95358.66
2022-12-31T09:20:14.191Z,95349.56
2022-12-31T09:22:41.977Z,95362.25
2022-12-31T09:25:17.219Z,95358.19
2022-12-31T09:27:56.434Z,95358.25
2022-12-31T09:30:26.648Z,95359.94
2022-12-31T09:33:36.441Z,95345.88
2022-12-31T09:36:07.773Z,95345.16
2022-12-31T09:38:40.105Z,95344.31
2022-12-31T09:41:16.655Z,95360.16
2022-12-31T09:44:02.282Z,95357.69
2022-12-31T09:46:48.127Z,95354.50
2022-12-31T09:49:36.952Z,95346.22
2022-12-31T09:52:19.491Z,95340.88
2022-12-31T09:55:02.391Z,95335.72
2022-12-31T09:57:58.140Z,95341.91
2022-12-31T10:00:43.879Z,95343.09
2022-12-31T10:03:32.191Z,95349.94
2022-12-31T10:06:27.308Z,95349.16
2022-12-31T10:09:35.074Z,95347.75
2022-12-31T10:12:39.389Z,95359.34
2022-12-31T10:15:19.870Z,95358.75
2022-12-31T10:18:23.838Z,95361.34
2022-12-31T10:21:01.297Z,95353.28
2022-12-31T10:23:46.626Z,95368.19
2022-12-31T10:26:21.330Z,95345.53
2022-12-31T10:28:56.622Z,95359.06
2022-12-31T10:31:37.738Z,95357.53
2022-12-31T10:34:14.960Z,95366.38
2022-12-31T10:37:09.441Z,95358.06
2022-12-31T10:39:45.563Z,95342.72
2022-12-31T10:42:25.704Z,95334.41
2022-12-31T10:44:58.776Z,95318.28
2022-12-31T10:47:26.379Z,95329.88
2022-12-31T10:50:22.068Z,95328.25
2022-12-31T10:53:08.545Z,95328.50
2022-12-31T10:55:57.192Z,95323.66
2022-12-31T10:58:51.316Z,95314.47
2022-12-31T11:01:30.618Z,95320.41
2022-12-31T11:04:34.232Z,95316.09
2022-12-31T11:07:32.747Z,95305.91
2022-12-31T11:10:21.812Z,95308.06
2022-12-31T11:13:07.286Z,95317.22
2022-12-31T11:16:16.092Z,95316.44
2022-12-31T11:19:04.848Z,95309.38
2022-12-31T11:21:50.353Z,95304.00
2022-12-31T11:24:47.020Z,95305.63
2022-12-31T11:27:46.081Z,95306.97
2022-12-31T11:30:34.659Z,95285.22
2022-12-31T11:33:08.110Z,95308.88
2022-12-31T11:35:48.306Z,95310.75
2022-12-31T11:38:24.203Z,95313.72
2022-12-31T11:41:39.326Z,95323.63
2022-12-31T11:44:24.006Z,95317.66
2022-12-31T11:47:01.857Z,95309.59
2022-12-31T11:49:47.454Z,95320.38
2022-12-31T11:52:26.728Z,95327.38
2022-12-31T11:54:54.789Z,95318.47
2022-12-31T11:57:27.646Z,95325.41
2022-12-31T12:00:02.218Z,95320.16
2022-12-31T12:02:46.040Z,95332.97
2022-12-31T12:05:17.127Z,95344.41
2022-12-31T12:07:44.761Z,95337.06
2022-12-31T12:10:46.732Z,95335.00
2022-12-31T12:13:34.772Z,95339.81
2022-12-31T12:16:06.889Z,95335.72
2022-12-31T12:18:37.164Z,95333.09
2022-12-31T12:21:25.378Z,95338.09
2022-12-31T12:24:07.029Z,95339.66
2022-12-31T12:26:43.346Z,95338.94
2022-12-31T12:29:16.848Z,95354.94
2022-12-31T12:32:07.958Z,95347.53
2022-12-31T12:34:46.049Z,95336.78
2022-12-31T12:37:37.185Z,95332.25
2022-12-31T12:40:29.774Z,95324.75
2022-12-31T12:42:59.330Z,95324.72
2022-12-31T12:45:30.401Z,95344.88
2022-12-31T12:48:02.340Z,95331.13
2022-12-31T12:50:42.534Z,95338.66
2022-12-31T12:53:16.259Z,95346.16
2022-12-31T12:55:55.498Z,95321.44
2022-12-31T12:58:48.592Z,95325.47
2022-12-31T13:01:27.730Z,95330.03
2022-12-31T13:07:23.664Z,95314.22
2022-12-31T13:10:06.459Z,95328.75
2022-12-31T13:13:21.966Z,95326.31
2022-12-31T13:16:08.346Z,95342.19
2022-12-31T13:18:46.527Z,95331.72
2022-12-31T13:21:32.638Z,95341.38
2022-12-31T13:24:23.774Z,95347.84
2022-12-31T13:27:13.537Z,95325.22
2022-12-31T13:29:43.848Z,95339.47
2022-12-31T13:32:19.049Z,95339.47
2022-12-31T13:34:50.374Z,95348.34
2022-12-31T13:37:37.595Z,95347.28
2022-12-31T13:40:21.675Z,95340.03
2022-12-31T13:43:04.917Z,95352.63
2022-12-31T13:45:41.184Z,95352.88
2022-12-31T13:48:16.459Z,95348.31
2022-12-31T13:51:08.032Z,95364.19
2022-12-31T13:54:00.048Z,95369.53
2022-12-31T13:56:31.680Z,95370.06
2022-12-31T13:59:12.832Z,95368.19
2022-12-31T14:01:59.547Z,95383.53
2022-12-31T14:04:52.276Z,95375.97
2022-12-31T14:07:55.619Z,95380.81
2022-12-31T14:10:49.833Z,95378.91
2022-12-31T14:13:43.360Z,95367.59
2022-12-31T14:16:21.820Z,95368.13
2022-12-31T14:18:51.757Z,95360.63
2022-12-31T14:21:27.618Z,95375.13
2022-12-31T14:24:16.069Z,95376.78
2022-12-31T14:26:56.228Z,95377.00
2022-12-31T14:29:48.093Z,95380.47
2022-12-31T14:32:43.377Z,95395.50
2022-12-31T14:35:38.627Z,95399.47
2022-12-31T14:38:06.128Z,95396.50
2022-12-31T14:41:10.211Z,95395.38
2022-12-31T14:43:54.848Z,95389.47
2022-12-31T14:46:33.223Z,95403.13
2022-12-31T14:49:22.663Z,95406.31
2022-12-31T14:51:49.942Z,95387.22
2022-12-31T14:54:29.404Z,95387.75
2022-12-31T14:56:56.826Z,95388.50
2022-12-31T14:59:27.835Z,95394.88
2022-12-31T15:01:56.977Z,95399.06
2022-12-31T15:04:44.772Z,95384.84
2022-12-31T15:07:30.388Z,95393.38
2022-12-31T15:10:04.671Z,95399.75
2022-12-31T15:13:03.979Z,95395.41
2022-12-31T15:16:28.410Z,95389.72
2022-12-31T15:19:19.699Z,95388.78
2022-12-31T15:22:31.733Z,95363.47
2022-12-31T15:25:01.206Z,95379.97
2022-12-31T15:27:37.434Z,95377.31
2022-12-31T15:30:07.251Z,95395.53
2022-12-31T15:32:41.656Z,95375.31
2022-12-31T15:35:21.184Z,95395.50
2022-12-31T15:38:32.899Z,95406.25
2022-12-31T15:41:01.337Z,95413.16
2022-12-31T15:43:43.660Z,95402.91
2022-12-31T15:46:19.902Z,95422.19
2022-12-31T15:48:55.495Z,95410.38
2022-12-31T15:51:36.524Z,95402.84
2022-12-31T15:54:07.299Z,95406.09
2022-12-31T15:56:39.643Z,95400.28
2022-12-31T15:59:14.978Z,95399.66
2022-12-31T16:01:43.956Z,95401.03
2022-12-31T16:04:23.128Z,95414.50
2022-12-31T16:06:51.811Z,95421.50
2022-12-31T16:09:29.138Z,95411.72
2022-12-31T16:11:58.009Z,95417.38
2022-12-31T16:14:46.568Z,95401.78
2022-12-31T16:17:36.762Z,95422.31
2022-12-31T16:20:25.780Z,95415.06
2022-12-31T16:22:57.775Z,95417.25
2022-12-31T16:25:31.306Z,95406.00
2022-12-31T16:27:59.756Z,95422.41
2022-12-31T16:30:32.374Z,95409.75
2022-12-31T16:33:04.366Z,95414.84
2022-12-31T16:35:34.261Z,95421.88
2022-12-31T16:38:19.769Z,95417.28
2022-12-31T16:41:21.029Z,95415.63
2022-12-31T16:43:49.833Z,95415.31
2022-12-31T16:46:31.317Z,95420.66
2022-12-31T16:49:14.169Z,95422.78
2022-12-31T16:51:42.273Z,95442.56
2022-12-31T16:54:20.937Z,95429.41
2022-12-31T16:56:49.758Z,95431.16
2022-12-31T16:59:24.264Z,95439.84
2022-12-31T17:01:56.215Z,95427.91
2022-12-31T17:04:24.755Z,95412.06
2022-12-31T17:06:52.289Z,95441.63
2022-12-31T17:09:22.054Z,95428.44
2022-12-31T17:12:10.294Z,95442.69
2022-12-31T17:14:49.636Z,95444.56
2022-12-31T17:17:27.973Z,95440.00
2022-12-31T17:20:00.548Z,95441.53
2022-12-31T17:22:37.193Z,95447.09
2022-12-31T17:25:20.649Z,95452.38
2022-12-31T17:28:02.769Z,95442.13
2022-12-31T17:30:30.036Z,95453.16
2022-12-31T17:33:12.833Z,95448.75
2022-12-31T17:35:42.633Z,95451.19
2022-12-31T17:38:22.184Z,95451.06
2022-12-31T17:41:06.683Z,95454.59
2022-12-31T17:43:36.671Z,95439.91
2022-12-31T17:46:11.086Z,95452.44
2022-12-31T17:48:39.079Z,95451.09
2022-12-31T17:51:06.600Z,95453.72
2022-12-31T17:53:34.337Z,95460.94
2022-12-31T17:56:04.632Z,95443.84
2022-12-31T17:58:44.003Z,95437.31
2022-12-31T18:01:15.615Z,95456.44
2022-12-31T18:03:44.139Z,95451.91
2022-12-31T18:06:16.521Z,95450.59
2022-12-31T18:08:45.059Z,95441.41
2022-12-31T18:11:17.194Z,95463.09
2022-12-31T18:13:45.095Z,95452.34
2022-12-31T18:16:12.643Z,95456.09
2022-12-31T18:18:42.131Z,95450.22
2022-12-31T18:21:17.966Z,95450.91
2022-12-31T18:23:47.399Z,95453.63
2022-12-31T18:26:20.188Z,95454.19
2022-12-31T18:28:49.223Z,95455.81
2022-12-31T18:31:21.990Z,95475.69
2022-12-31T18:33:50.941Z,95477.22
2022-12-31T18:36:20.494Z,95472.88
2022-12-31T18:38:48.765Z,95462.34
2022-12-31T18:41:27.147Z,95462.19
2022-12-31T18:43:55.579Z,95466.59
2022-12-31T18:46:25.436Z,95467.63
2022-12-31T18:48:53.117Z,95461.13
2022-12-31T18:51:31.032Z,95457.81
2022-12-31T18:54:03.898Z,95467.69
2022-12-31T18:56:31.640Z,95466.72
2022-12-31T18:58:59.978Z,95465.50
2022-12-31T19:01:30.505Z,95466.34
2022-12-31T19:04:04.121Z,95458.19
2022-12-31T19:06:31.778Z,95459.03
2022-12-31T19:09:01.117Z,95468.13
2022-12-31T19:11:29.169Z,95473.91
2022-12-31T19:13:56.322Z,95451.69
2022-12-31T19:16:23.929Z,95482.44
2022-12-31T19:18:51.227Z,95477.97
2022-12-31T19:21:25.777Z,95469.44
2022-12-31T19:23:54.932Z,95493.66
2022-12-31T19:26:23.292Z,95474.94
2022-12-31T19:28:52.093Z,95482.56
2022-12-31T19:31:19.744Z,95467.81
2022-12-31T19:33:47.266Z,95489.72
2022-12-31T19:36:20.686Z,95490.81
2022-12-31T19:38:47.999Z,95481.38
2022-12-31T19:41:21.603Z,95479.28
2022-12-31T19:43:49.690Z,95485.19
2022-12-31T19:46:18.682Z,95505.88
2022-12-31T19:48:46.421Z,95507.41
2022-12-31T19:51:21.746Z,95519.19
2022-12-31T19:53:50.292Z,95519.22
2022-12-31T19:56:20.430Z,95526.47
2022-12-31T19:58:47.778Z,95523.25
2022-12-31T20:01:23.747Z,95511.97
2022-12-31T20:03:51.939Z,95526.75
2022-12-31T20:06:19.617Z,95521.56
2022-12-31T20:08:46.978Z,95539.56
2022-12-31T20:11:17.576Z,95549.09
2022-12-31T20:13:46.113Z,95538.75
2022-12-31T20:16:16.095Z,95545.09
2022-12-31T20:18:44.974Z,95554.59
2022-12-31T20:21:15.310Z,95555.50
2022-12-31T20:23:42.464Z,95558.88
2022-12-31T20:26:10.733Z,95556.72
2022-12-31T20:28:38.253Z,95560.31
2022-12-31T20:31:11.469Z,95562.66
2022-12-31T20:33:38.944Z,95556.28
2022-12-31T20:36:08.880Z,95569.72
2022-12-31T20:38:36.128Z,95564.38
2022-12-31T20:41:09.112Z,95551.88
2022-12-31T20:43:37.113Z,95563.69
2022-12-31T20:46:15.759Z,95563.22
2022-12-31T20:48:45.082Z,95559.84
2022-12-31T20:51:13.671Z,95554.63
2022-12-31T20:53:46.850Z,95574.19
2022-12-31T20:56:14.571Z,95572.16
2022-12-31T20:58:44.476Z,95573.53
2022-12-31T21:01:12.785Z,95573.97
2022-12-31T21:06:30.941Z,95563.81
2022-12-31T21:09:00.194Z,95567.38
2022-12-31T21:11:46.209Z,95573.00
2022-12-31T21:14:13.507Z,95575.53
2022-12-31T21:16:41.083Z,95570.84
2022-12-31T21:19:09.122Z,95564.72
2022-12-31T21:21:36.977Z,95591.41
2022-12-31T21:24:04.573Z,95588.97
2022-12-31T21:26:32.357Z,95585.59
2022-12-31T21:28:59.679Z,95594.16
2022-12-31T21:31:27.365Z,95578.19
2022-12-31T21:33:55.235Z,95589.78
2022-12-31T21:36:22.973Z,95582.00
2022-12-31T21:38:50.211Z,95580.19
2022-12-31T21:41:36.205Z,95587.34
2022-12-31T21:44:03.959Z,95571.53
2022-12-31T21:46:31.615Z,95581.72
2022-12-31T21:49:00.638Z,95574.56
2022-12-31T21:51:31.370Z,95575.28
2022-12-31T21:53:58.656Z,95581.00
2022-12-31T21:56:26.196Z,95571.94
2022-12-31T21:59:14.558Z,95568.69
2022-12-31T22:02:01.429Z,95585.19
2022-12-31T22:05:00.779Z,95587.63
2022-12-31T22:07:16.559Z,95590.47
2022-12-31T22:09:43.732Z,95600.66
2022-12-31T22:12:11.748Z,95586.47
2022-12-31T22:14:38.990Z,95598.03
2022-12-31T22:17:26.744Z,95580.56
2022-12-31T22:20:25.115Z,95596.31
2022-12-31T22:22:42.193Z,95583.53
2022-12-31T22:25:10.038Z,95593.88
2022-12-31T22:27:37.636Z,95594.53
2022-12-31T22:30:06.538Z,95590.91
2022-12-31T22:32:34.192Z,95598.31
2022-12-31T22:35:01.382Z,95581.88
2022-12-31T22:37:55.659Z,95593.53
2022-12-31T22:40:17.343Z,95584.66
2022-12-31T22:42:45.409Z,95594.50
2022-12-31T22:45:12.627Z,95586.38
2022-12-31T22:47:40.267Z,95589.63
2022-12-31T22:50:08.103Z,95584.31
2022-12-31T22:52:35.665Z,95588.66
2022-12-31T22:55:02.988Z,95590.66
2022-12-31T22:57:30.494Z,95588.50
2022-12-31T22:59:57.701Z,95584.53
2022-12-31T23:02:25.428Z,95579.69
2022-12-31T23:04:52.868Z,95585.66
2022-12-31T23:07:40.528Z,95579.00
2022-12-31T23:10:28.098Z,95590.38
2022-12-31T23:12:55.823Z,95584.00
2022-12-31T23:15:41.555Z,95600.75
2022-12-31T23:18:28.114Z,95585.88
2022-12-31T23:21:17.763Z,95600.63
2022-12-31T23:23:45.438Z,95597.28
2022-12-31T23:26:12.659Z,95604.13
2022-12-31T23:28:42.003Z,95603.56
2022-12-31T23:31:09.321Z,95592.38
2022-12-31T23:33:37.037Z,95597.66
2022-12-31T23:36:07.798Z,95596.63
2022-12-31T23:38:36.358Z,95595.41
2022-12-31T23:41:18.767Z,95584.44
2022-12-31T23:43:46.533Z,95603.63
2022-12-31T23:46:14.725Z,95595.88
2022-12-31T23:48:42.632Z,95589.16
2022-12-31T23:51:10.269Z,95602.94
2022-12-31T23:53:39.284Z,95584.94
2022-12-31T23:56:20.912Z,95595.66
2022-12-31T23:58:56.395Z,95593.44
